Time;durP1;ratioP1;P1;durP2;ratioP2;P2;SDS_P1;SDS_P2;PMS_P1;PMS_P2;Temp;Humidity;BMP_temperature;BMP_pressure;BME280_temperature;BME280_humidity;BME280_pressure;Samples;Min_cycle;Max_cycle;Signal;HPM_P1;HPM_P2
2023/04/07 00:00:24;;;;;;;;;;;7.10;99.90;;;;;;5078808;28;20417;-80
2023/04/07 00:02:49;;;;;;;;;;;7.10;99.90;;;;;;5063597;28;19989;-80
2023/04/07 00:05:15;;;;;;;;;;;7.10;99.90;;;;;;5073658;28;19935;-80
2023/04/07 00:07:40;;;;;;;;;;;7.10;99.90;;;;;;5074120;28;19974;-80
2023/04/07 00:10:06;;;;;;;;;;;7.10;99.90;;;;;;5059685;28;20498;-80
2023/04/07 00:12:32;;;;;;;;;;;7.10;99.90;;;;;;5081126;28;19958;-81
2023/04/07 00:14:58;;;;;;;;;;;7.10;99.90;;;;;;5071505;28;19924;-80
2023/04/07 00:17:23;;;;;;;;;;;7.10;99.90;;;;;;5056861;28;19970;-80
2023/04/07 00:19:49;;;;;;;;;;;7.10;99.90;;;;;;5071576;28;19925;-80
2023/04/07 00:22:14;;;;;;;;;;;7.10;99.90;;;;;;5091781;28;19984;-79
2023/04/07 00:24:40;;;;;;;;;;;7.10;99.90;;;;;;5088802;28;19929;-80
2023/04/07 00:27:05;;;;;;;;;;;7.10;99.90;;;;;;5088424;28;19999;-80
2023/04/07 00:29:31;;;;;;;;;;;7.10;99.90;;;;;;5075340;28;19928;-80
2023/04/07 00:31:57;;;;;;;;;;;7.10;99.90;;;;;;5071638;28;19928;-80
2023/04/07 00:34:22;;;;;;;;;;;7.10;99.90;;;;;;5073214;28;19998;-80
2023/04/07 00:36:51;;;;;;;;;;;7.10;99.90;;;;;;5073405;28;19932;-80
2023/04/07 00:39:20;;;;;;;;;;;7.10;99.90;;;;;;5087957;28;19928;-80
2023/04/07 00:41:46;;;;;;;;;;;7.10;99.90;;;;;;5088729;28;19969;-80
2023/04/07 00:44:13;;;;;;;;;;;7.10;99.90;;;;;;5071472;28;20470;-80
2023/04/07 00:46:40;;;;;;;;;;;7.10;99.90;;;;;;5089622;28;19928;-80
2023/04/07 00:49:06;;;;;;;;;;;7.10;99.90;;;;;;5087756;28;20014;-80
2023/04/07 00:51:31;;;;;;;;;;;7.10;99.90;;;;;;5073652;28;19924;-80
2023/04/07 00:53:58;;;;;;;;;;;7.10;99.90;;;;;;5072604;28;20064;-80
2023/04/07 00:56:23;;;;;;;;;;;7.10;99.90;;;;;;5055813;28;19931;-80
2023/04/07 00:58:49;;;;;;;;;;;7.10;99.90;;;;;;5089284;28;19940;-80
2023/04/07 01:01:17;;;;;;;;;;;7.10;99.90;;;;;;5070010;28;19935;-80
2023/04/07 01:04:02;;;;;;;;;;;7.10;99.90;;;;;;5071651;28;20433;-81
2023/04/07 01:06:30;;;;;;;;;;;7.10;99.90;;;;;;5072650;28;19979;-79
2023/04/07 01:09:31;;;;;;;;;;;7.10;99.90;;;;;;5073159;28;19928;-79
2023/04/07 01:12:01;;;;;;;;;;;7.20;99.90;;;;;;5022951;28;19933;-79
2023/04/07 01:14:27;;;;;;;;;;;7.10;99.90;;;;;;5065931;28;19924;-79
2023/04/07 01:16:54;;;;;;;;;;;7.20;99.90;;;;;;5072666;28;19931;-79
2023/04/07 01:19:20;;;;;;;;;;;7.20;99.90;;;;;;5075053;28;19924;-79
2023/04/07 01:21:47;;;;;;;;;;;7.20;99.90;;;;;;5073962;28;20322;-80
2023/04/07 01:24:13;;;;;;;;;;;7.10;99.90;;;;;;5074729;28;19928;-79
2023/04/07 01:26:39;;;;;;;;;;;7.20;99.90;;;;;;5077505;28;19930;-79
2023/04/07 01:29:23;;;;;;;;;;;7.20;99.90;;;;;;5071743;28;19960;-79
2023/04/07 01:31:50;;;;;;;;;;;7.20;99.90;;;;;;5076234;28;19924;-79
2023/04/07 01:34:16;;;;;;;;;;;7.10;99.90;;;;;;5090428;28;19981;-79
2023/04/07 01:36:42;;;;;;;;;;;7.20;99.90;;;;;;5074185;28;19924;-79
2023/04/07 01:39:08;;;;;;;;;;;7.20;99.90;;;;;;5058249;28;19928;-78
2023/04/07 01:41:36;;;;;;;;;;;7.20;99.90;;;;;;5058424;28;19939;-79
2023/04/07 01:44:02;;;;;;;;;;;7.20;99.90;;;;;;5088879;28;19962;-79
2023/04/07 01:46:28;;;;;;;;;;;7.20;99.90;;;;;;5073700;28;19924;-79
2023/04/07 01:48:54;;;;;;;;;;;7.20;99.90;;;;;;5059809;28;20070;-80
2023/04/07 01:51:21;;;;;;;;;;;7.20;99.90;;;;;;5060329;28;19924;-79
2023/04/07 01:53:47;;;;;;;;;;;7.20;99.90;;;;;;5057316;28;19928;-79
2023/04/07 01:56:13;;;;;;;;;;;7.20;99.90;;;;;;5075136;28;19939;-79
2023/04/07 01:58:38;;;;;;;;;;;7.20;99.90;;;;;;5076409;28;19928;-79
2023/04/07 02:01:04;;;;;;;;;;;7.20;99.90;;;;;;5075735;28;19928;-79
2023/04/07 02:03:30;;;;;;;;;;;7.20;99.90;;;;;;5058217;28;19961;-78
2023/04/07 02:06:02;;;;;;;;;;;7.20;99.90;;;;;;5076750;28;19932;-79
2023/04/07 02:08:28;;;;;;;;;;;7.20;99.90;;;;;;5076484;28;19931;-79
2023/04/07 02:10:54;;;;;;;;;;;7.20;99.90;;;;;;5075661;28;19924;-79
2023/04/07 02:13:21;;;;;;;;;;;7.20;99.90;;;;;;5092240;28;19981;-78
2023/04/07 02:15:47;;;;;;;;;;;7.20;99.90;;;;;;5073565;28;20092;-78
2023/04/07 02:18:14;;;;;;;;;;;7.20;99.90;;;;;;5074163;28;19991;-79
2023/04/07 02:20:41;;;;;;;;;;;7.20;99.90;;;;;;5072024;28;20342;-79
2023/04/07 02:23:07;;;;;;;;;;;7.20;99.90;;;;;;5077330;28;19924;-79
2023/04/07 02:25:33;;;;;;;;;;;7.20;99.90;;;;;;5089525;28;19950;-80
2023/04/07 02:27:59;;;;;;;;;;;7.20;99.90;;;;;;5059309;28;19971;-79
2023/04/07 02:30:25;;;;;;;;;;;7.20;99.90;;;;;;5074126;28;19980;-80
2023/04/07 02:32:51;;;;;;;;;;;7.20;99.90;;;;;;5077078;28;19952;-80
2023/04/07 02:35:17;;;;;;;;;;;7.20;99.90;;;;;;5058970;28;19931;-80
2023/04/07 02:37:42;;;;;;;;;;;7.20;99.90;;;;;;5076949;28;19970;-80
2023/04/07 02:40:08;;;;;;;;;;;7.20;99.90;;;;;;5058250;28;20375;-80
2023/04/07 02:42:35;;;;;;;;;;;7.20;99.90;;;;;;5091071;28;20389;-80
2023/04/07 02:45:01;;;;;;;;;;;7.20;99.90;;;;;;5090930;28;20015;-80
2023/04/07 02:47:27;;;;;;;;;;;7.20;99.90;;;;;;5073602;28;19924;-80
2023/04/07 02:49:52;;;;;;;;;;;7.20;99.90;;;;;;5058711;28;19932;-79
2023/04/07 02:52:18;;;;;;;;;;;7.20;99.90;;;;;;5092327;28;19979;-79
2023/04/07 02:54:43;;;;;;;;;;;7.20;99.90;;;;;;5059816;28;19924;-80
2023/04/07 02:57:09;;;;;;;;;;;7.20;99.90;;;;;;5090431;28;19932;-79
2023/04/07 02:59:35;;;;;;;;;;;7.30;99.90;;;;;;5057388;28;19967;-79
2023/04/07 03:02:00;;;;;;;;;;;7.20;99.90;;;;;;5075312;28;20319;-79
2023/04/07 03:04:27;;;;;;;;;;;7.20;99.90;;;;;;5091381;28;19932;-79
2023/04/07 03:06:52;;;;;;;;;;;7.20;99.90;;;;;;5090251;28;19951;-79
2023/04/07 03:09:18;;;;;;;;;;;7.20;99.90;;;;;;5058048;28;20371;-79
2023/04/07 03:11:43;;;;;;;;;;;7.20;99.90;;;;;;5074375;28;20398;-79
2023/04/07 03:14:09;;;;;;;;;;;7.20;99.90;;;;;;5069989;28;19928;-79
2023/04/07 03:16:35;;;;;;;;;;;7.20;99.90;;;;;;5072648;28;19928;-80
2023/04/07 03:19:00;;;;;;;;;;;7.20;99.90;;;;;;5072257;28;19940;-79
2023/04/07 03:21:27;;;;;;;;;;;7.20;99.90;;;;;;5058493;28;20302;-79
2023/04/07 03:23:53;;;;;;;;;;;7.20;99.90;;;;;;5057915;28;19924;-79
2023/04/07 03:26:19;;;;;;;;;;;7.20;99.90;;;;;;5089923;28;19947;-79
2023/04/07 03:28:44;;;;;;;;;;;7.20;99.90;;;;;;5073936;28;19952;-79
2023/04/07 03:31:10;;;;;;;;;;;7.30;99.90;;;;;;5074610;28;19927;-79
2023/04/07 03:33:36;;;;;;;;;;;7.30;99.90;;;;;;5074491;28;20032;-79
2023/04/07 03:36:01;;;;;;;;;;;7.20;99.90;;;;;;5057782;28;20002;-79
2023/04/07 03:38:27;;;;;;;;;;;7.30;99.90;;;;;;5056989;28;19989;-79
2023/04/07 03:40:53;;;;;;;;;;;7.20;99.90;;;;;;5058571;28;19935;-80
2023/04/07 03:43:18;;;;;;;;;;;7.20;99.90;;;;;;5074102;28;20329;-79
2023/04/07 03:45:45;;;;;;;;;;;7.30;99.90;;;;;;5090267;28;19930;-79
2023/04/07 03:48:11;;;;;;;;;;;7.30;99.90;;;;;;5089898;28;20053;-80
2023/04/07 03:50:38;;;;;;;;;;;7.20;99.90;;;;;;5089275;28;19928;-80
2023/04/07 03:53:03;;;;;;;;;;;7.30;99.90;;;;;;5072349;28;19935;-80
2023/04/07 03:55:29;;;;;;;;;;;7.30;99.90;;;;;;5073475;28;19924;-80
2023/04/07 03:57:55;;;;;;;;;;;7.30;99.90;;;;;;5056199;28;20035;-80
2023/04/07 04:00:20;;;;;;;;;;;7.20;99.90;;;;;;5071873;28;19924;-80
2023/04/07 04:02:46;;;;;;;;;;;7.30;99.90;;;;;;5073607;28;19932;-79
2023/04/07 04:05:12;;;;;;;;;;;7.30;99.90;;;;;;5072427;28;19932;-79
2023/04/07 04:07:37;;;;;;;;;;;7.30;99.90;;;;;;5056672;28;20438;-79
2023/04/07 04:10:03;;;;;;;;;;;7.20;99.90;;;;;;5089102;28;19924;-79
2023/04/07 04:12:28;;;;;;;;;;;7.30;99.90;;;;;;5054360;28;19924;-79
2023/04/07 04:14:54;;;;;;;;;;;7.20;99.90;;;;;;5061081;28;19925;-79
2023/04/07 04:17:20;;;;;;;;;;;7.30;99.90;;;;;;5080014;28;20405;-79
2023/04/07 04:19:45;;;;;;;;;;;7.20;99.90;;;;;;5097665;28;19940;-79
2023/04/07 04:22:11;;;;;;;;;;;7.30;99.90;;;;;;5079151;28;20019;-79
2023/04/07 04:24:37;;;;;;;;;;;7.30;99.90;;;;;;5079974;28;19961;-79
2023/04/07 04:27:02;;;;;;;;;;;7.30;99.90;;;;;;5079788;28;19969;-79
2023/04/07 04:29:28;;;;;;;;;;;7.30;99.90;;;;;;5063163;28;20097;-79
2023/04/07 04:31:53;;;;;;;;;;;7.30;99.90;;;;;;5061622;28;19924;-79
2023/04/07 04:34:19;;;;;;;;;;;7.30;99.90;;;;;;5096949;28;19940;-79
2023/04/07 04:36:45;;;;;;;;;;;7.30;99.90;;;;;;5080241;28;19924;-79
2023/04/07 04:39:10;;;;;;;;;;;7.30;99.90;;;;;;5078527;28;20019;-79
2023/04/07 04:41:36;;;;;;;;;;;7.20;99.90;;;;;;5095436;28;19990;-79
2023/04/07 04:44:02;;;;;;;;;;;7.20;99.90;;;;;;5075305;28;19942;-79
2023/04/07 04:46:27;;;;;;;;;;;7.20;99.90;;;;;;5071996;28;19982;-79
2023/04/07 04:48:53;;;;;;;;;;;7.20;99.90;;;;;;5074244;28;19967;-79
2023/04/07 04:51:19;;;;;;;;;;;7.20;99.90;;;;;;5087527;28;19928;-79
2023/04/07 04:53:44;;;;;;;;;;;7.20;99.90;;;;;;5089936;28;19924;-79
2023/04/07 04:56:10;;;;;;;;;;;7.20;99.90;;;;;;5060164;28;19932;-79
2023/04/07 04:58:36;;;;;;;;;;;7.20;99.90;;;;;;5076202;28;19928;-80
2023/04/07 05:01:02;;;;;;;;;;;7.20;99.90;;;;;;5091736;28;20414;-79
2023/04/07 05:03:27;;;;;;;;;;;7.20;99.90;;;;;;5059513;28;19991;-79
2023/04/07 05:05:53;;;;;;;;;;;7.20;99.90;;;;;;5077245;28;19985;-79
2023/04/07 05:08:19;;;;;;;;;;;7.20;99.90;;;;;;5060472;28;19976;-80
2023/04/07 05:10:45;;;;;;;;;;;7.20;99.90;;;;;;5076676;28;20367;-79
2023/04/07 05:13:11;;;;;;;;;;;7.10;99.90;;;;;;5074318;28;20002;-79
2023/04/07 05:15:36;;;;;;;;;;;7.20;99.90;;;;;;5074487;28;19932;-79
2023/04/07 05:18:02;;;;;;;;;;;7.20;99.90;;;;;;5076616;28;19979;-79
2023/04/07 05:20:27;;;;;;;;;;;7.20;99.90;;;;;;5058687;28;19925;-79
2023/04/07 05:22:53;;;;;;;;;;;7.10;99.90;;;;;;5074732;28;19951;-79
2023/04/07 05:25:19;;;;;;;;;;;7.20;99.90;;;;;;5094108;28;19928;-79
2023/04/07 05:27:45;;;;;;;;;;;7.20;99.90;;;;;;5066585;28;19928;-79
2023/04/07 05:30:11;;;;;;;;;;;7.20;99.90;;;;;;5083536;28;20325;-79
2023/04/07 05:32:37;;;;;;;;;;;7.20;99.90;;;;;;5064870;28;19932;-79
2023/04/07 05:35:02;;;;;;;;;;;7.20;99.90;;;;;;5075028;28;19969;-79
2023/04/07 05:37:28;;;;;;;;;;;7.10;99.90;;;;;;5074103;28;19928;-79
2023/04/07 05:39:53;;;;;;;;;;;7.20;99.90;;;;;;5076613;28;19928;-79
2023/04/07 05:42:19;;;;;;;;;;;7.20;99.90;;;;;;5060849;28;20001;-79
2023/04/07 05:44:45;;;;;;;;;;;7.20;99.90;;;;;;5073997;28;21990;-78
2023/04/07 05:47:11;;;;;;;;;;;7.10;99.90;;;;;;5093842;28;19932;-78
2023/04/07 05:49:36;;;;;;;;;;;7.10;99.90;;;;;;5059453;28;20014;-79
2023/04/07 05:52:02;;;;;;;;;;;7.10;99.90;;;;;;5058614;28;19924;-78
2023/04/07 05:54:28;;;;;;;;;;;7.10;99.90;;;;;;5091799;28;19924;-79
2023/04/07 05:56:55;;;;;;;;;;;7.10;99.90;;;;;;5075113;28;19995;-78
2023/04/07 05:59:20;;;;;;;;;;;7.10;99.90;;;;;;5074246;28;19932;-79
2023/04/07 06:01:46;;;;;;;;;;;7.10;99.90;;;;;;5059040;28;19935;-79
2023/04/07 06:04:11;;;;;;;;;;;7.10;99.90;;;;;;5075818;28;19979;-79
2023/04/07 06:06:37;;;;;;;;;;;7.10;99.90;;;;;;5058218;28;19934;-79
2023/04/07 06:09:03;;;;;;;;;;;7.10;99.90;;;;;;5073834;28;19961;-79
2023/04/07 06:11:28;;;;;;;;;;;7.10;99.90;;;;;;5092058;28;20005;-79
2023/04/07 06:13:54;;;;;;;;;;;7.10;99.90;;;;;;5069437;28;19936;-79
2023/04/07 06:16:19;;;;;;;;;;;7.00;99.90;;;;;;5057835;28;20472;-80
2023/04/07 06:18:45;;;;;;;;;;;7.10;99.90;;;;;;5050762;28;19931;-80
2023/04/07 06:21:11;;;;;;;;;;;7.10;99.90;;;;;;5071212;28;19928;-80
2023/04/07 06:23:37;;;;;;;;;;;7.10;99.90;;;;;;5086906;28;19928;-79
2023/04/07 06:26:02;;;;;;;;;;;7.10;99.90;;;;;;5073321;28;19960;-79
2023/04/07 06:28:28;;;;;;;;;;;7.20;99.90;;;;;;5067470;28;19924;-79
2023/04/07 06:30:54;;;;;;;;;;;7.20;99.90;;;;;;5068461;28;19958;-79
2023/04/07 06:33:24;;;;;;;;;;;7.20;99.90;;;;;;5068825;28;19931;-80
2023/04/07 06:35:50;;;;;;;;;;;7.20;99.90;;;;;;5085656;28;19924;-79
2023/04/07 06:38:15;;;;;;;;;;;7.10;99.90;;;;;;5069649;28;19945;-79
2023/04/07 06:40:41;;;;;;;;;;;7.20;99.90;;;;;;5054107;28;19936;-80
2023/04/07 06:43:06;;;;;;;;;;;7.20;99.90;;;;;;5067781;28;19975;-79
2023/04/07 06:45:32;;;;;;;;;;;7.20;99.90;;;;;;5068522;28;19935;-79
2023/04/07 06:47:58;;;;;;;;;;;7.20;99.90;;;;;;5086519;28;19939;-79
2023/04/07 06:50:23;;;;;;;;;;;7.20;99.90;;;;;;5069478;28;19931;-79
2023/04/07 06:52:49;;;;;;;;;;;7.20;99.90;;;;;;5056012;28;19982;-79
2023/04/07 06:55:15;;;;;;;;;;;7.20;99.90;;;;;;5069200;28;19924;-79
2023/04/07 06:57:40;;;;;;;;;;;7.20;99.90;;;;;;5060292;28;20023;-79
2023/04/07 07:00:09;;;;;;;;;;;7.20;99.90;;;;;;5057439;28;20537;-78
2023/04/07 07:02:35;;;;;;;;;;;7.20;99.90;;;;;;5072760;28;20567;-79
2023/04/07 07:05:01;;;;;;;;;;;7.20;99.90;;;;;;5075910;28;19950;-79
2023/04/07 07:07:26;;;;;;;;;;;7.30;99.90;;;;;;5074264;28;19979;-79
2023/04/07 07:09:52;;;;;;;;;;;7.30;99.90;;;;;;5054434;28;19924;-78
2023/04/07 07:12:18;;;;;;;;;;;7.30;99.90;;;;;;5092085;28;19935;-78
2023/04/07 07:14:43;;;;;;;;;;;7.30;99.90;;;;;;5064336;28;19928;-78
2023/04/07 07:17:09;;;;;;;;;;;7.30;99.90;;;;;;5081173;28;19931;-78
2023/04/07 07:19:35;;;;;;;;;;;7.30;99.90;;;;;;5063901;28;20307;-78
2023/04/07 07:22:02;;;;;;;;;;;7.40;99.90;;;;;;5062972;28;19986;-78
2023/04/07 07:24:28;;;;;;;;;;;7.50;99.90;;;;;;5080673;28;19984;-78
2023/04/07 07:26:55;;;;;;;;;;;7.60;99.90;;;;;;5061024;28;19931;-77
2023/04/07 07:29:21;;;;;;;;;;;7.60;99.90;;;;;;5079230;28;19989;-76
2023/04/07 07:31:46;;;;;;;;;;;7.70;99.90;;;;;;5074742;28;19936;-77
2023/04/07 07:34:12;;;;;;;;;;;7.80;99.90;;;;;;5087944;28;19931;-77
2023/04/07 07:36:37;;;;;;;;;;;8.00;99.90;;;;;;5056068;28;19931;-78
2023/04/07 07:39:04;;;;;;;;;;;8.10;99.90;;;;;;5075358;28;19931;-78
2023/04/07 07:41:30;;;;;;;;;;;8.20;99.90;;;;;;5058510;28;20015;-78
2023/04/07 07:43:55;;;;;;;;;;;8.20;99.90;;;;;;5074574;28;19963;-78
2023/04/07 07:46:24;;;;;;;;;;;8.20;99.90;;;;;;5073943;28;19975;-78
2023/04/07 07:48:50;;;;;;;;;;;8.30;99.90;;;;;;5089974;28;19932;-78
2023/04/07 07:51:17;;;;;;;;;;;8.20;99.90;;;;;;5090502;28;19928;-77
2023/04/07 07:53:43;;;;;;;;;;;8.30;99.90;;;;;;5091851;28;19989;-78
2023/04/07 07:56:09;;;;;;;;;;;8.30;99.90;;;;;;5091831;28;19931;-78
2023/04/07 07:58:34;;;;;;;;;;;8.30;99.90;;;;;;5073553;28;19931;-78
2023/04/07 08:01:00;;;;;;;;;;;8.30;99.90;;;;;;5075126;28;19928;-77
2023/04/07 08:03:26;;;;;;;;;;;8.20;99.90;;;;;;5075348;28;19927;-77
2023/04/07 08:05:51;;;;;;;;;;;8.20;99.90;;;;;;5074725;28;19935;-77
2023/04/07 08:08:17;;;;;;;;;;;8.20;99.90;;;;;;5072203;28;20023;-77
2023/04/07 08:10:42;;;;;;;;;;;8.20;99.90;;;;;;5073595;28;20382;-77
2023/04/07 08:13:08;;;;;;;;;;;8.30;99.90;;;;;;5055062;28;19994;-78
2023/04/07 08:15:33;;;;;;;;;;;8.30;99.90;;;;;;5057494;28;19995;-77
2023/04/07 08:17:59;;;;;;;;;;;8.30;99.90;;;;;;5072550;28;19924;-77
2023/04/07 08:20:28;;;;;;;;;;;8.30;99.90;;;;;;5091046;28;19924;-77
2023/04/07 08:22:53;;;;;;;;;;;8.40;99.90;;;;;;5063319;28;19987;-77
2023/04/07 08:25:19;;;;;;;;;;;8.40;99.90;;;;;;5079922;28;19924;-77
2023/04/07 08:27:45;;;;;;;;;;;8.40;99.90;;;;;;5061939;28;19924;-77
2023/04/07 08:30:11;;;;;;;;;;;8.40;99.90;;;;;;5093070;28;19924;-77
2023/04/07 08:32:40;;;;;;;;;;;8.40;99.90;;;;;;5062271;28;20280;-78
2023/04/07 08:35:06;;;;;;;;;;;8.50;99.90;;;;;;5077892;28;19954;-77
2023/04/07 08:37:32;;;;;;;;;;;8.50;99.90;;;;;;5076830;28;19924;-77
2023/04/07 08:39:59;;;;;;;;;;;8.60;99.90;;;;;;5093338;28;19935;-77
2023/04/07 08:42:26;;;;;;;;;;;8.70;99.90;;;;;;5079061;28;19924;-77
2023/04/07 08:44:54;;;;;;;;;;;8.70;99.90;;;;;;5077822;28;19930;-77
2023/04/07 08:47:21;;;;;;;;;;;8.80;99.90;;;;;;5077038;28;19924;-77
2023/04/07 08:49:50;;;;;;;;;;;9.00;99.90;;;;;;5078152;28;19982;-76
2023/04/07 08:52:17;;;;;;;;;;;9.00;99.90;;;;;;5095744;28;19924;-77
2023/04/07 08:54:42;;;;;;;;;;;9.20;99.90;;;;;;5077440;28;19924;-77
2023/04/07 08:57:08;;;;;;;;;;;9.30;99.90;;;;;;5077780;28;19930;-77
2023/04/07 08:59:35;;;;;;;;;;;9.40;99.90;;;;;;5058268;28;19932;-77
2023/04/07 09:02:01;;;;;;;;;;;9.40;99.90;;;;;;5090521;28;19925;-77
2023/04/07 09:04:26;;;;;;;;;;;9.50;99.90;;;;;;5079214;28;19932;-77
2023/04/07 09:06:52;;;;;;;;;;;9.50;99.90;;;;;;5079600;28;19924;-77
2023/04/07 09:09:17;;;;;;;;;;;9.50;99.90;;;;;;5097458;28;19924;-77
2023/04/07 09:11:43;;;;;;;;;;;9.40;99.90;;;;;;5075806;28;19934;-77
2023/04/07 09:14:09;;;;;;;;;;;9.40;99.90;;;;;;5095870;28;19924;-77
2023/04/07 09:16:35;;;;;;;;;;;9.40;99.90;;;;;;5078314;28;20019;-77
2023/04/07 09:19:00;;;;;;;;;;;9.40;99.90;;;;;;5094640;28;19987;-77
2023/04/07 09:21:45;;;;;;;;;;;9.40;99.90;;;;;;5094908;28;20362;-77
2023/04/07 09:24:21;;;;;;;;;;;9.40;99.90;;;;;;5078664;28;19995;-77
2023/04/07 09:26:47;;;;;;;;;;;9.50;99.90;;;;;;5077816;28;19924;-77
2023/04/07 09:29:17;;;;;;;;;;;9.50;99.90;;;;;;5061913;28;20594;-77
2023/04/07 09:31:49;;;;;;;;;;;9.50;99.90;;;;;;5079432;28;19924;-77
2023/04/07 09:34:31;;;;;;;;;;;9.50;99.90;;;;;;5078745;28;19924;-77
2023/04/07 09:36:57;;;;;;;;;;;9.50;99.90;;;;;;5073277;28;19932;-77
2023/04/07 09:39:23;;;;;;;;;;;9.50;99.90;;;;;;5095563;28;19924;-77
2023/04/07 09:41:49;;;;;;;;;;;9.50;99.90;;;;;;5096673;28;19924;-77
2023/04/07 09:44:15;;;;;;;;;;;9.50;99.90;;;;;;5080906;28;20026;-77
2023/04/07 09:46:52;;;;;;;;;;;9.50;99.90;;;;;;5098862;28;20003;-77
2023/04/07 09:49:19;;;;;;;;;;;9.50;99.90;;;;;;5098088;28;19931;-77
2023/04/07 09:51:53;;;;;;;;;;;9.50;99.90;;;;;;5101015;28;19931;-77
2023/04/07 09:54:38;;;;;;;;;;;9.40;99.90;;;;;;5079739;28;19977;-76
2023/04/07 09:57:05;;;;;;;;;;;9.40;99.90;;;;;;5094737;28;20408;-77
2023/04/07 09:59:32;;;;;;;;;;;9.40;99.90;;;;;;5077589;28;19931;-77
2023/04/07 10:01:58;;;;;;;;;;;9.40;99.90;;;;;;5081420;28;19924;-77
2023/04/07 10:04:24;;;;;;;;;;;9.40;99.90;;;;;;5078384;28;19996;-76
2023/04/07 10:06:51;;;;;;;;;;;9.50;99.90;;;;;;5097495;28;19924;-76
2023/04/07 10:09:16;;;;;;;;;;;9.50;99.90;;;;;;5098091;28;19975;-76
2023/04/07 10:11:42;;;;;;;;;;;9.60;99.90;;;;;;5078021;28;19928;-75
2023/04/07 10:14:09;;;;;;;;;;;9.60;99.90;;;;;;5076993;28;19924;-77
2023/04/07 10:16:36;;;;;;;;;;;9.70;99.90;;;;;;5080037;28;19928;-76
2023/04/07 10:19:02;;;;;;;;;;;9.80;99.90;;;;;;5103842;28;19931;-76
2023/04/07 10:21:28;;;;;;;;;;;9.90;99.90;;;;;;5107898;28;19979;-76
2023/04/07 10:23:53;;;;;;;;;;;9.90;99.90;;;;;;5087609;28;19924;-76
2023/04/07 10:26:22;;;;;;;;;;;9.90;99.90;;;;;;5081437;28;20505;-76
2023/04/07 10:28:50;;;;;;;;;;;9.90;99.90;;;;;;5079338;28;19992;-76
2023/04/07 10:31:16;;;;;;;;;;;9.80;99.90;;;;;;5082462;28;19928;-76
2023/04/07 10:33:49;;;;;;;;;;;9.80;99.90;;;;;;5099421;28;20405;-76
2023/04/07 10:36:16;;;;;;;;;;;9.80;99.90;;;;;;5081305;28;19931;-76
2023/04/07 10:39:02;;;;;;;;;;;9.90;99.90;;;;;;5069019;28;19924;-76
2023/04/07 10:41:35;;;;;;;;;;;9.90;99.90;;;;;;5077637;28;19931;-76
2023/04/07 10:44:04;;;;;;;;;;;10.00;99.90;;;;;;5069196;28;19931;-76
2023/04/07 10:46:46;;;;;;;;;;;10.10;99.90;;;;;;5077793;28;20011;-76
2023/04/07 10:49:15;;;;;;;;;;;10.20;99.90;;;;;;5069766;28;19924;-76
2023/04/07 10:51:41;;;;;;;;;;;10.20;99.90;;;;;;5095633;28;19985;-76
2023/04/07 10:54:16;;;;;;;;;;;10.10;99.90;;;;;;5097682;28;19932;-76
2023/04/07 10:57:01;;;;;;;;;;;10.20;99.90;;;;;;5079578;28;19932;-76
2023/04/07 10:59:27;;;;;;;;;;;10.30;99.90;;;;;;5071331;28;19931;-76
2023/04/07 11:02:11;;;;;;;;;;;10.50;99.90;;;;;;5079461;28;19977;-76
2023/04/07 11:04:37;;;;;;;;;;;10.60;99.90;;;;;;5061687;28;19995;-76
2023/04/07 11:07:02;;;;;;;;;;;10.60;99.90;;;;;;5092674;28;19925;-76
2023/04/07 11:09:28;;;;;;;;;;;10.50;99.90;;;;;;5059699;28;19981;-77
2023/04/07 11:11:54;;;;;;;;;;;10.50;99.90;;;;;;5081080;28;19931;-77
2023/04/07 11:14:30;;;;;;;;;;;10.40;99.90;;;;;;5097575;28;19963;-77
2023/04/07 11:16:56;;;;;;;;;;;10.30;99.90;;;;;;5081597;28;19975;-77
2023/04/07 11:19:22;;;;;;;;;;;10.20;99.90;;;;;;5080809;28;19947;-77
2023/04/07 11:21:48;;;;;;;;;;;10.10;99.90;;;;;;5081396;28;19924;-77
2023/04/07 11:24:32;;;;;;;;;;;10.00;99.90;;;;;;5081148;28;19928;-77
2023/04/07 11:26:58;;;;;;;;;;;10.00;99.90;;;;;;5064507;28;19924;-77
2023/04/07 11:29:28;;;;;;;;;;;10.00;99.90;;;;;;5080749;28;20005;-77
2023/04/07 11:31:54;;;;;;;;;;;10.00;99.90;;;;;;5081355;28;19924;-77
2023/04/07 11:34:20;;;;;;;;;;;10.10;99.90;;;;;;5098832;28;19993;-77
2023/04/07 11:36:46;;;;;;;;;;;10.10;99.90;;;;;;5059356;28;19925;-77
2023/04/07 11:39:20;;;;;;;;;;;10.20;99.90;;;;;;5054869;28;19950;-77
2023/04/07 11:41:46;;;;;;;;;;;10.30;99.90;;;;;;5080281;28;19924;-77
2023/04/07 11:44:12;;;;;;;;;;;10.30;99.90;;;;;;5063927;28;19925;-77
2023/04/07 11:46:52;;;;;;;;;;;10.50;99.90;;;;;;5080580;28;19924;-77
2023/04/07 11:49:18;;;;;;;;;;;10.50;99.90;;;;;;5080683;28;19959;-77
2023/04/07 11:51:44;;;;;;;;;;;10.60;99.90;;;;;;5080430;28;19947;-77
2023/04/07 11:54:10;;;;;;;;;;;10.60;99.90;;;;;;5080796;28;20501;-77
2023/04/07 11:56:43;;;;;;;;;;;10.60;99.90;;;;;;5080420;28;19928;-77
2023/04/07 11:59:16;;;;;;;;;;;10.60;99.90;;;;;;5080217;28;19935;-77
2023/04/07 12:01:42;;;;;;;;;;;10.60;99.90;;;;;;5080422;28;19931;-77
2023/04/07 12:04:11;;;;;;;;;;;10.60;99.90;;;;;;5079810;28;19924;-77
2023/04/07 12:06:37;;;;;;;;;;;10.50;99.90;;;;;;5080569;28;20035;-77
2023/04/07 12:09:04;;;;;;;;;;;10.60;99.90;;;;;;5096808;28;19924;-77
2023/04/07 12:11:30;;;;;;;;;;;10.60;99.90;;;;;;5080145;28;19924;-77
2023/04/07 12:13:56;;;;;;;;;;;10.60;99.90;;;;;;5096652;28;20345;-77
2023/04/07 12:16:22;;;;;;;;;;;10.50;99.90;;;;;;5097189;28;19935;-77
2023/04/07 12:18:48;;;;;;;;;;;10.50;99.90;;;;;;5080188;28;19925;-77
2023/04/07 12:21:14;;;;;;;;;;;10.40;99.90;;;;;;5077738;28;19946;-77
2023/04/07 12:23:40;;;;;;;;;;;10.40;99.90;;;;;;5093648;28;19928;-78
2023/04/07 12:26:06;;;;;;;;;;;10.30;99.90;;;;;;5091105;28;19928;-79
2023/04/07 12:28:32;;;;;;;;;;;10.30;99.90;;;;;;5077613;28;19939;-78
2023/04/07 12:30:58;;;;;;;;;;;10.30;99.90;;;;;;5093627;28;20378;-78
2023/04/07 12:33:23;;;;;;;;;;;10.30;99.90;;;;;;5062646;28;19980;-78
2023/04/07 12:35:49;;;;;;;;;;;10.40;99.90;;;;;;5058799;28;19928;-77
2023/04/07 12:38:14;;;;;;;;;;;10.40;99.90;;;;;;5064000;28;19924;-78
2023/04/07 12:40:40;;;;;;;;;;;10.40;99.90;;;;;;5079032;28;19958;-77
2023/04/07 12:43:06;;;;;;;;;;;10.50;99.90;;;;;;5094038;28;19935;-78
2023/04/07 12:45:32;;;;;;;;;;;10.50;99.90;;;;;;5065266;28;19924;-78
2023/04/07 12:47:58;;;;;;;;;;;10.50;99.90;;;;;;5059506;28;19928;-78
2023/04/07 12:50:28;;;;;;;;;;;10.50;99.90;;;;;;5077408;28;19934;-78
2023/04/07 12:52:54;;;;;;;;;;;10.50;99.90;;;;;;5078160;28;19928;-78
2023/04/07 12:55:20;;;;;;;;;;;10.40;99.90;;;;;;5078598;28;19950;-78
2023/04/07 12:57:46;;;;;;;;;;;10.40;99.90;;;;;;5078604;28;19928;-78
2023/04/07 13:00:12;;;;;;;;;;;10.30;99.90;;;;;;5076249;28;19969;-78
2023/04/07 13:02:38;;;;;;;;;;;10.20;99.90;;;;;;5060680;28;19995;-78
2023/04/07 13:05:04;;;;;;;;;;;10.30;99.90;;;;;;5095528;28;19928;-78
2023/04/07 13:07:30;;;;;;;;;;;10.30;99.90;;;;;;5091981;28;19924;-77
2023/04/07 13:09:56;;;;;;;;;;;10.30;99.90;;;;;;5077992;28;19950;-77
2023/04/07 13:12:22;;;;;;;;;;;10.30;99.90;;;;;;5059945;28;19971;-77
2023/04/07 13:14:47;;;;;;;;;;;10.30;99.90;;;;;;5061410;28;19924;-77
2023/04/07 13:17:13;;;;;;;;;;;10.40;99.90;;;;;;5081070;28;19945;-77
2023/04/07 13:19:39;;;;;;;;;;;10.40;99.90;;;;;;5061303;28;19950;-77
2023/04/07 13:22:04;;;;;;;;;;;10.50;99.90;;;;;;5077613;28;19928;-77
2023/04/07 13:24:30;;;;;;;;;;;10.40;99.90;;;;;;5076532;28;19959;-76
2023/04/07 13:26:56;;;;;;;;;;;10.50;99.90;;;;;;5077246;28;19928;-77
2023/04/07 13:29:22;;;;;;;;;;;10.50;99.90;;;;;;5075754;28;20078;-77
2023/04/07 13:31:48;;;;;;;;;;;10.70;99.90;;;;;;5076884;28;19934;-77
2023/04/07 13:34:14;;;;;;;;;;;10.80;99.90;;;;;;5075088;28;19959;-77
2023/04/07 13:36:40;;;;;;;;;;;10.90;99.90;;;;;;5072233;28;19932;-77
2023/04/07 13:39:06;;;;;;;;;;;11.10;99.90;;;;;;5074976;28;19924;-77
2023/04/07 13:41:32;;;;;;;;;;;11.20;99.90;;;;;;5093653;28;19962;-77
2023/04/07 13:43:57;;;;;;;;;;;11.30;99.90;;;;;;5077076;28;19932;-77
2023/04/07 13:46:24;;;;;;;;;;;11.40;99.90;;;;;;5077437;28;19924;-77
2023/04/07 13:48:50;;;;;;;;;;;11.50;99.90;;;;;;5092637;28;20250;-77
2023/04/07 13:51:15;;;;;;;;;;;11.60;99.90;;;;;;5075192;28;19928;-77
2023/04/07 13:53:41;;;;;;;;;;;11.70;99.90;;;;;;5093431;28;19971;-77
2023/04/07 13:56:07;;;;;;;;;;;11.70;99.90;;;;;;5057899;28;19982;-77
2023/04/07 13:58:33;;;;;;;;;;;11.70;99.90;;;;;;5059251;28;19924;-77
2023/04/07 14:00:59;;;;;;;;;;;11.70;99.90;;;;;;5109689;28;19932;-77
2023/04/07 14:03:25;;;;;;;;;;;11.60;99.90;;;;;;5057399;28;20430;-77
2023/04/07 14:05:50;;;;;;;;;;;11.70;99.90;;;;;;5075355;28;20187;-77
2023/04/07 14:08:17;;;;;;;;;;;11.60;99.90;;;;;;5057667;28;19928;-77
2023/04/07 14:10:43;;;;;;;;;;;11.70;99.90;;;;;;5079167;28;20034;-77
2023/04/07 14:13:09;;;;;;;;;;;11.70;99.90;;;;;;5059572;28;20302;-77
2023/04/07 14:15:35;;;;;;;;;;;11.70;99.90;;;;;;5058275;28;19925;-77
2023/04/07 14:18:01;;;;;;;;;;;11.70;99.90;;;;;;5073744;28;19994;-77
2023/04/07 14:20:26;;;;;;;;;;;11.70;99.90;;;;;;5070535;28;20438;-77
2023/04/07 14:22:52;;;;;;;;;;;11.70;99.90;;;;;;5064750;28;19932;-77